Olney, Texas
Current Conditions -  °F | °C
As of 1:10 PM on Thursday 30 Oct 2014 (Local Time) from KRPH Reporting Station
Clear Clear  
Wind Chill: 79°   Ceiling: Unl
Heat Index: 80°   Visibility: 10mi
Dew Point: 60°   Wind: 5mph
Humidity: 53%   Direction: 180°S
Pressure: 30.1"   Gusts: NA
Location:  33.37°N, 98.75°W
Report Text: KRPH 301810Z AUTO 18004KT 10SM CLR 26/16 A3010 RMK AO2 T02600158
Loading
Personal Weather Stations






























Interactive Weather Map
Tropical Storm Tracking
New forecast layout! Learn more

10-Day Weather Forecast

Advertisements
Track Severe Weather on mobile